createdAt,value
2018-02-05T00:00:25.854Z,15.27
2018-02-05T00:02:51.887Z,17.43
2018-02-05T00:05:17.830Z,16.25
2018-02-05T00:07:44.550Z,16.90
2018-02-05T00:10:10.487Z,17.27
2018-02-05T00:12:36.458Z,18.40
2018-02-05T00:15:02.409Z,19.43
2018-02-05T00:17:28.317Z,18.43
2018-02-05T00:19:54.243Z,20.40
2018-02-05T00:22:20.175Z,16.80
2018-02-05T00:24:46.109Z,22.80
2018-02-05T00:27:12.087Z,18.23
2018-02-05T00:29:38.018Z,20.53
2018-02-05T00:32:03.959Z,23.10
2018-02-05T00:34:29.891Z,18.70
2018-02-05T00:36:55.824Z,21.63
2018-02-05T00:39:21.766Z,21.30
2018-02-05T00:41:47.714Z,23.27
2018-02-05T00:44:13.687Z,22.83
2018-02-05T00:46:39.634Z,22.43
2018-02-05T00:49:05.561Z,21.17
2018-02-05T00:51:31.566Z,18.10
2018-02-05T00:53:57.527Z,26.23
2018-02-05T00:56:23.511Z,18.70
2018-02-05T00:58:49.531Z,20.35
2018-02-05T01:01:15.465Z,17.45
2018-02-05T01:03:41.419Z,21.20
2018-02-05T01:06:07.436Z,23.10
2018-02-05T01:08:33.538Z,21.80
2018-02-05T01:10:59.791Z,22.62
2018-02-05T01:13:25.738Z,19.48
2018-02-05T01:15:51.675Z,18.33
2018-02-05T01:18:18.363Z,22.17
2018-02-05T01:20:44.302Z,19.00
2018-02-05T01:23:11.106Z,19.80
2018-02-05T01:25:37.134Z,21.92
2018-02-05T01:28:03.084Z,22.87
2018-02-05T01:30:29.054Z,23.63
2018-02-05T01:32:55.060Z,17.30
2018-02-05T01:35:22.078Z,21.15
2018-02-05T01:37:48.004Z,20.55
2018-02-05T01:40:13.964Z,16.83
2018-02-05T01:42:40.052Z,24.17
2018-02-05T01:45:06.057Z,21.50
2018-02-05T01:47:32.043Z,22.35
2018-02-05T01:49:58.022Z,21.60
2018-02-05T01:52:23.976Z,20.37
2018-02-05T01:54:50.058Z,19.10
2018-02-05T01:57:16.126Z,20.80
2018-02-05T01:59:42.143Z,18.95
2018-02-05T02:02:08.092Z,20.20
2018-02-05T02:04:34.087Z,18.77
2018-02-05T02:07:00.040Z,22.30
2018-02-05T02:09:26.005Z,19.80
2018-02-05T02:11:51.991Z,22.83
2018-02-05T02:14:17.956Z,23.37
2018-02-05T02:16:43.902Z,20.10
2018-02-05T02:19:10.331Z,23.37
2018-02-05T02:21:36.290Z,21.58
2018-02-05T02:24:02.287Z,20.90
2018-02-05T02:26:28.320Z,17.95
2018-02-05T02:28:54.272Z,20.83
2018-02-05T02:31:20.209Z,22.97
2018-02-05T02:33:46.906Z,22.20
2018-02-05T02:36:12.848Z,20.65
2018-02-05T02:38:38.789Z,21.90
2018-02-05T02:41:04.937Z,19.10
2018-02-05T02:43:30.874Z,20.30
2018-02-05T02:45:56.830Z,19.10
2018-02-05T02:48:22.803Z,16.60
2018-02-05T02:50:48.790Z,20.80
2018-02-05T02:53:14.720Z,22.57
2018-02-05T02:55:40.769Z,19.17
2018-02-05T02:58:07.053Z,19.20
2018-02-05T03:00:32.998Z,18.58
2018-02-05T03:02:58.998Z,18.87
2018-02-05T03:05:24.943Z,20.08
2018-02-05T03:07:51.683Z,19.13
2018-02-05T03:10:17.635Z,17.70
2018-02-05T03:12:43.632Z,19.57
2018-02-05T03:15:09.543Z,19.67
2018-02-05T03:17:36.254Z,22.53
2018-02-05T03:20:02.297Z,17.40
2018-02-05T03:22:29.023Z,23.42
2018-02-05T03:24:55.042Z,20.02
2018-02-05T03:27:20.978Z,19.50
2018-02-05T03:29:46.986Z,17.73
2018-02-05T03:32:13.002Z,20.65
2018-02-05T03:34:38.963Z,19.80
2018-02-05T03:37:05.031Z,22.97
2018-02-05T03:39:31.102Z,19.35
2018-02-05T03:41:57.051Z,22.00
2018-02-05T03:44:23.022Z,20.60
2018-02-05T03:46:49.033Z,20.87
2018-02-05T03:49:14.963Z,21.95
2018-02-05T03:51:40.939Z,21.67
2018-02-05T03:54:06.933Z,24.20
2018-02-05T03:56:32.885Z,24.73
2018-02-05T03:58:58.864Z,22.37
2018-02-05T04:01:24.860Z,22.03
2018-02-05T04:03:50.806Z,22.15
2018-02-05T04:06:16.735Z,23.70
2018-02-05T04:08:42.690Z,19.80
2018-02-05T04:11:08.646Z,22.00
2018-02-05T04:13:34.637Z,24.90
2018-02-05T04:16:00.599Z,22.83
2018-02-05T04:18:26.576Z,22.50
2018-02-05T04:20:52.538Z,21.43
2018-02-05T04:23:18.492Z,25.03
2018-02-05T04:25:45.188Z,24.17
2018-02-05T04:28:11.126Z,22.90
2018-02-05T04:30:37.062Z,26.30
2018-02-05T04:33:03.009Z,21.87
2018-02-05T04:35:29.078Z,20.43
2018-02-05T04:37:55.054Z,20.75
2018-02-05T04:40:20.994Z,24.63
2018-02-05T04:42:47.075Z,21.80
2018-02-05T04:45:13.757Z,22.60
2018-02-05T04:47:39.718Z,23.77
2018-02-05T04:50:05.654Z,24.77
2018-02-05T04:52:32.481Z,22.37
2018-02-05T04:54:58.414Z,20.40
2018-02-05T04:57:25.091Z,26.27
2018-02-05T04:59:51.001Z,23.45
2018-02-05T05:02:16.982Z,25.03
2018-02-05T05:04:42.959Z,26.30
2018-02-05T05:07:09.032Z,26.53
2018-02-05T05:09:35.002Z,26.02
2018-02-05T05:12:01.082Z,21.50
2018-02-05T05:14:27.038Z,24.02
2018-02-05T05:16:52.982Z,24.77
2018-02-05T05:19:18.919Z,21.57
2018-02-05T05:21:44.843Z,27.40
2018-02-05T05:24:10.847Z,22.10
2018-02-05T05:26:36.809Z,24.83
2018-02-05T05:29:02.821Z,24.13
2018-02-05T05:31:28.973Z,24.17
2018-02-05T05:33:54.910Z,23.40
2018-02-05T05:36:20.905Z,23.30
2018-02-05T05:38:47.626Z,20.40
2018-02-05T05:41:14.456Z,31.33
2018-02-05T05:43:40.419Z,24.08
2018-02-05T05:46:07.151Z,27.70
2018-02-05T05:48:33.051Z,29.15
2018-02-05T05:50:59.806Z,22.07
2018-02-05T05:53:26.467Z,26.08
2018-02-05T05:55:52.381Z,23.08
2018-02-05T05:58:18.346Z,24.10
2018-02-05T06:00:44.258Z,23.70
2018-02-05T06:03:10.250Z,25.97
2018-02-05T06:05:36.256Z,22.55
2018-02-05T06:08:02.936Z,25.27
2018-02-05T06:10:28.842Z,24.23
2018-02-05T06:12:54.808Z,24.20
2018-02-05T06:15:20.821Z,22.20
2018-02-05T06:17:46.793Z,26.35
2018-02-05T06:20:12.789Z,25.50
2018-02-05T06:22:38.693Z,26.30
2018-02-05T06:25:04.675Z,22.57
2018-02-05T06:27:30.644Z,25.20
2018-02-05T06:29:56.601Z,25.83
2018-02-05T06:32:22.576Z,25.30
2018-02-05T06:34:48.542Z,25.23
2018-02-05T06:37:14.534Z,26.17
2018-02-05T06:39:40.434Z,25.13
2018-02-05T06:42:06.372Z,25.67
2018-02-05T06:44:32.425Z,27.80
2018-02-05T06:46:58.354Z,28.90
2018-02-05T06:49:25.113Z,25.30
2018-02-05T06:52:03.479Z,24.98
2018-02-05T06:54:42.501Z,28.83
2018-02-05T06:57:09.011Z,24.15
2018-02-05T06:59:34.987Z,27.10
2018-02-05T07:02:00.953Z,24.13
2018-02-05T07:04:26.880Z,28.67
2018-02-05T07:06:52.817Z,25.40
2018-02-05T07:09:21.000Z,34.53
2018-02-05T07:11:47.725Z,40.90
2018-02-05T07:14:14.779Z,31.02
2018-02-05T07:16:41.574Z,32.10
2018-02-05T07:19:07.682Z,32.75
2018-02-05T07:21:33.612Z,23.75
2018-02-05T07:23:59.595Z,26.53
2018-02-05T07:26:26.365Z,28.83
2018-02-05T07:28:52.487Z,24.48
2018-02-05T07:31:19.555Z,27.83
2018-02-05T07:33:45.625Z,22.42
2018-02-05T07:36:12.095Z,28.05
2018-02-05T07:38:40.938Z,25.50
2018-02-05T07:41:07.237Z,24.15
2018-02-05T07:43:33.222Z,26.15
2018-02-05T07:45:59.177Z,22.20
2018-02-05T07:48:25.144Z,25.37
2018-02-05T07:50:53.436Z,26.67
2018-02-05T07:53:19.415Z,24.98
2018-02-05T07:55:45.488Z,21.80
2018-02-05T07:58:11.538Z,25.10
2018-02-05T08:00:37.564Z,25.30
2018-02-05T08:03:03.736Z,26.08
2018-02-05T08:05:30.456Z,26.95
2018-02-05T08:07:56.440Z,23.35
2018-02-05T08:10:22.395Z,27.57
2018-02-05T08:12:48.361Z,24.53
2018-02-05T08:15:15.191Z,21.83
2018-02-05T08:17:41.207Z,23.05
2018-02-05T08:20:08.432Z,25.80
2018-02-05T08:22:34.435Z,24.15
2018-02-05T08:25:00.352Z,22.05
2018-02-05T08:27:26.967Z,29.03
2018-02-05T08:29:53.548Z,23.95
2018-02-05T08:32:19.591Z,24.73
2018-02-05T08:34:45.555Z,26.42
2018-02-05T08:37:11.516Z,24.77
2018-02-05T08:39:37.486Z,24.93
2018-02-05T08:42:03.479Z,27.20
2018-02-05T08:44:30.211Z,23.98
2018-02-05T08:46:56.387Z,25.48
2018-02-05T08:49:22.467Z,24.48
2018-02-05T08:51:50.076Z,23.50
2018-02-05T08:54:16.114Z,22.15
2018-02-05T08:56:42.240Z,23.17
2018-02-05T08:59:08.996Z,22.45
2018-02-05T09:01:34.998Z,19.40
2018-02-05T09:04:00.935Z,18.42
2018-02-05T09:06:27.014Z,20.37
2018-02-05T09:08:52.970Z,23.42
2018-02-05T09:11:18.944Z,22.17
2018-02-05T09:13:45.036Z,23.77
2018-02-05T09:16:11.802Z,21.73
2018-02-05T09:18:38.013Z,18.05
2018-02-05T09:21:04.733Z,19.90
2018-02-05T09:25:52.477Z,19.75
2018-02-05T09:28:22.126Z,26.37
2018-02-05T09:30:48.294Z,22.15
2018-02-05T09:33:14.325Z,21.77
2018-02-05T09:35:40.450Z,19.95
2018-02-05T09:38:06.495Z,19.37
2018-02-05T09:40:33.312Z,25.75
2018-02-05T09:42:59.305Z,24.23
2018-02-05T09:45:25.347Z,24.73
2018-02-05T09:47:51.542Z,23.20
2018-02-05T09:50:18.224Z,22.85
2018-02-05T09:52:45.174Z,20.12
2018-02-05T09:55:11.340Z,21.15
2018-02-05T09:57:39.145Z,20.73
2018-02-05T10:00:05.262Z,21.77
2018-02-05T10:02:31.282Z,25.00
2018-02-05T10:04:57.261Z,21.65
2018-02-05T10:07:24.275Z,18.57
2018-02-05T10:09:50.773Z,26.33
2018-02-05T10:12:17.068Z,23.17
2018-02-05T10:14:43.092Z,19.35
2018-02-05T10:17:11.715Z,19.58
2018-02-05T10:19:39.172Z,19.37
2018-02-05T10:22:05.290Z,18.08
2018-02-05T10:24:31.316Z,21.25
2018-02-05T10:26:57.371Z,26.87
2018-02-05T10:29:24.258Z,21.85
2018-02-05T10:31:50.382Z,22.77
2018-02-05T10:34:17.390Z,21.85
2018-02-05T10:36:44.174Z,22.45
2018-02-05T10:39:11.431Z,18.27
2018-02-05T10:41:43.266Z,19.05
2018-02-05T10:44:09.920Z,21.73
2018-02-05T10:46:36.758Z,18.00
2018-02-05T10:49:03.691Z,17.42
2018-02-05T10:51:30.147Z,16.70
2018-02-05T10:53:56.295Z,24.80
2018-02-05T10:56:22.321Z,15.35
2018-02-05T10:58:48.324Z,17.92
2018-02-05T11:01:14.334Z,18.00
2018-02-05T11:03:40.342Z,17.95
2018-02-05T11:06:07.124Z,16.95
2018-02-05T11:08:33.123Z,20.17
2018-02-05T11:10:59.259Z,19.17
2018-02-05T11:13:25.416Z,22.33
2018-02-05T11:15:51.809Z,19.90
2018-02-05T11:18:17.836Z,26.90
2018-02-05T11:20:43.876Z,14.83
2018-02-05T11:23:09.822Z,18.77
2018-02-05T11:25:35.908Z,19.00
2018-02-05T11:28:01.894Z,15.90
2018-02-05T11:30:27.907Z,15.82
2018-02-05T11:32:53.968Z,14.63
2018-02-05T11:35:20.041Z,16.30
2018-02-05T11:37:46.059Z,17.17
2018-02-05T11:40:12.366Z,13.57
2018-02-05T11:45:12.505Z,14.00
2018-02-05T11:47:38.465Z,12.60
2018-02-05T11:50:05.239Z,8.60
2018-02-05T11:52:31.242Z,11.10
2018-02-05T11:54:59.331Z,9.73
2018-02-05T11:57:25.435Z,9.90
2018-02-05T11:59:51.496Z,13.30
2018-02-05T12:02:17.503Z,14.80
2018-02-05T12:04:43.452Z,13.13
2018-02-05T12:07:09.489Z,16.33
2018-02-05T12:09:35.485Z,15.17
2018-02-05T12:12:01.516Z,14.77
2018-02-05T12:14:27.563Z,9.13
2018-02-05T12:16:53.618Z,9.43
2018-02-05T12:19:21.330Z,14.93
2018-02-05T12:21:47.568Z,19.73
2018-02-05T12:24:13.580Z,11.00
2018-02-05T12:26:39.617Z,13.80
2018-02-05T12:29:05.630Z,9.37
2018-02-05T12:31:31.712Z,11.83
2018-02-05T12:33:57.751Z,16.60
2018-02-05T12:36:24.332Z,12.23
2018-02-05T12:38:50.492Z,9.50
2018-02-05T12:41:16.447Z,13.53
2018-02-05T12:43:42.406Z,10.47
2018-02-05T12:46:08.570Z,13.90
2018-02-05T12:48:34.522Z,13.50
2018-02-05T12:51:01.289Z,12.00
2018-02-05T12:53:27.315Z,10.10
2018-02-05T12:55:54.258Z,12.17
2018-02-05T12:58:21.040Z,12.83
2018-02-05T13:01:04.800Z,9.70
2018-02-05T13:03:33.790Z,9.13
2018-02-05T13:06:02.713Z,8.27
2018-02-05T13:08:28.741Z,10.53
2018-02-05T13:10:54.743Z,8.07
2018-02-05T13:13:21.593Z,10.17
2018-02-05T13:15:47.655Z,8.07
2018-02-05T13:18:13.941Z,11.63
2018-02-05T13:20:40.000Z,11.80
2018-02-05T13:23:06.198Z,12.40
2018-02-05T13:25:32.934Z,13.50
2018-02-05T13:27:58.891Z,13.70
2018-02-05T13:30:25.267Z,12.50
2018-02-05T13:32:52.113Z,8.97
2018-02-05T13:35:18.123Z,16.90
2018-02-05T13:37:44.817Z,7.33
2018-02-05T13:40:11.214Z,7.70
2018-02-05T13:42:37.252Z,8.00
2018-02-05T13:45:03.316Z,7.30
2018-02-05T13:47:29.291Z,9.00
2018-02-05T13:49:57.248Z,8.60
2018-02-05T13:52:23.282Z,8.53
2018-02-05T13:54:49.310Z,7.50
2018-02-05T13:57:15.544Z,8.93
2018-02-05T13:59:42.457Z,9.00
2018-02-05T14:02:08.508Z,9.40
2018-02-05T14:04:34.531Z,7.10
2018-02-05T14:07:00.699Z,8.90
2018-02-05T14:09:28.819Z,7.37
2018-02-05T14:11:56.113Z,12.23
2018-02-05T14:14:23.940Z,8.17
2018-02-05T14:16:50.560Z,7.40
2018-02-05T14:19:17.042Z,14.03
2018-02-05T14:21:45.657Z,9.23
2018-02-05T14:24:12.114Z,8.40
2018-02-05T14:26:43.876Z,7.03
2018-02-05T14:29:10.127Z,12.03
2018-02-05T14:31:36.492Z,7.07
2018-02-05T14:34:02.684Z,8.30
2018-02-05T14:36:28.691Z,13.13
2018-02-05T14:38:54.719Z,10.50
2018-02-05T14:41:25.212Z,10.17
2018-02-05T14:43:51.390Z,18.40
2018-02-05T14:46:17.443Z,11.20
2018-02-05T14:48:43.482Z,14.03
2018-02-05T14:51:09.684Z,11.97
2018-02-05T14:53:36.354Z,10.57
2018-02-05T14:56:02.410Z,8.03
2018-02-05T14:58:30.172Z,10.20
2018-02-05T15:00:56.418Z,8.73
2018-02-05T15:03:22.521Z,10.00
2018-02-05T15:05:48.760Z,9.27
2018-02-05T15:08:15.151Z,17.03
2018-02-05T15:10:41.511Z,12.00
2018-02-05T15:13:08.979Z,16.47
2018-02-05T15:15:35.221Z,11.80
2018-02-05T15:18:01.238Z,15.90
2018-02-05T15:20:28.002Z,11.90
2018-02-05T15:22:54.848Z,14.20
2018-02-05T15:25:21.298Z,12.03
2018-02-05T15:27:47.324Z,12.50
2018-02-05T15:30:16.594Z,10.13
2018-02-05T15:32:43.375Z,11.93
2018-02-05T15:35:10.026Z,12.23
2018-02-05T15:37:36.854Z,14.07
2018-02-05T15:40:03.712Z,9.50
2018-02-05T15:42:33.390Z,14.87
2018-02-05T15:45:03.851Z,12.00
2018-02-05T15:47:29.927Z,15.10
2018-02-05T15:49:56.122Z,12.53
2018-02-05T15:52:22.194Z,11.80
2018-02-05T15:54:48.227Z,15.50
2018-02-05T15:57:15.026Z,16.93
2018-02-05T15:59:41.205Z,16.93
2018-02-05T16:02:08.002Z,15.90
2018-02-05T16:04:33.954Z,13.60
2018-02-05T16:07:00.519Z,16.93
2018-02-05T16:09:26.524Z,17.10
2018-02-05T16:11:52.626Z,15.10
2018-02-05T16:14:18.652Z,12.00
2018-02-05T16:16:44.755Z,11.23
2018-02-05T16:19:10.920Z,17.33
2018-02-05T16:21:36.891Z,21.70
2018-02-05T16:24:02.972Z,12.00
2018-02-05T16:26:29.605Z,13.97
2018-02-05T16:28:55.679Z,14.60
2018-02-05T16:31:21.748Z,13.40
2018-02-05T16:33:47.744Z,13.40
2018-02-05T16:36:13.731Z,14.13
2018-02-05T16:38:39.718Z,12.20
2018-02-05T16:41:06.563Z,12.13
2018-02-05T16:46:05.418Z,11.70
2018-02-05T16:48:32.038Z,14.70
2018-02-05T16:50:58.102Z,12.20
2018-02-05T16:53:28.673Z,17.10
2018-02-05T16:55:57.324Z,13.40
2018-02-05T16:58:23.415Z,15.10
2018-02-05T17:00:49.480Z,14.50
2018-02-05T17:03:17.082Z,10.63
2018-02-05T17:05:43.814Z,10.63
2018-02-05T17:08:11.411Z,11.40
2018-02-05T17:10:37.377Z,18.83
2018-02-05T17:13:04.302Z,19.53
2018-02-05T17:15:30.262Z,15.70
2018-02-05T17:17:56.291Z,13.50
2018-02-05T17:20:23.073Z,13.00
2018-02-05T17:22:49.035Z,16.55
2018-02-05T17:25:15.746Z,14.40
2018-02-05T17:27:41.743Z,15.45
2018-02-05T17:30:08.086Z,14.30
2018-02-05T17:32:34.158Z,18.90
2018-02-05T17:35:01.486Z,14.95
2018-02-05T17:37:27.554Z,17.40
2018-02-05T17:39:54.322Z,15.02
2018-02-05T17:42:22.327Z,13.25
2018-02-05T17:44:48.559Z,17.37
2018-02-05T17:47:16.019Z,12.23
2018-02-05T17:49:43.269Z,13.95
2018-02-05T17:52:09.392Z,16.67
2018-02-05T17:54:35.412Z,17.98
2018-02-05T17:57:01.562Z,16.80
2018-02-05T17:59:27.714Z,14.02
2018-02-05T18:01:53.702Z,18.95
2018-02-05T18:04:19.746Z,15.50
2018-02-05T18:06:46.682Z,17.15
2018-02-05T18:09:12.694Z,18.00
2018-02-05T18:11:38.691Z,27.40
2018-02-05T18:14:04.708Z,19.13
2018-02-05T18:16:30.726Z,17.70
2018-02-05T18:18:56.859Z,16.48
2018-02-05T18:21:22.994Z,24.02
2018-02-05T18:23:49.984Z,19.08
2018-02-05T18:26:16.081Z,25.60
2018-02-05T18:28:42.914Z,20.37
2018-02-05T18:31:09.103Z,16.90
2018-02-05T18:33:35.146Z,18.15
2018-02-05T18:36:02.561Z,15.60
2018-02-05T18:38:28.499Z,15.82
2018-02-05T18:40:54.447Z,18.43
2018-02-05T18:43:20.577Z,15.33
2018-02-05T18:45:46.974Z,19.37
2018-02-05T18:48:13.200Z,23.60
2018-02-05T18:50:39.225Z,17.65
2018-02-05T18:53:05.208Z,14.07
2018-02-05T18:55:32.003Z,18.27
2018-02-05T18:57:57.949Z,17.62
2018-02-05T19:00:36.250Z,18.33
2018-02-05T19:03:03.331Z,17.90
2018-02-05T19:05:31.176Z,20.88
2018-02-05T19:08:04.022Z,17.58
2018-02-05T19:10:30.054Z,18.58
2018-02-05T19:12:56.071Z,24.98
2018-02-05T19:15:22.112Z,21.20
2018-02-05T19:17:48.178Z,24.92
2018-02-05T19:20:14.171Z,23.35
2018-02-05T19:22:40.363Z,20.42
2018-02-05T19:25:06.379Z,58.22
2018-02-05T19:27:32.472Z,36.75
2018-02-05T19:29:58.502Z,21.83
2018-02-05T19:32:25.453Z,19.23
2018-02-05T19:34:51.616Z,22.62
2018-02-05T19:37:20.334Z,23.12
2018-02-05T19:39:46.543Z,22.02
2018-02-05T19:42:12.856Z,18.85
2018-02-05T19:44:39.010Z,22.95
2018-02-05T19:47:05.238Z,22.42
2018-02-05T19:49:31.447Z,21.70
2018-02-05T19:51:58.670Z,21.08
2018-02-05T19:54:26.486Z,24.40
2018-02-05T19:56:53.210Z,23.25
2018-02-05T19:59:19.268Z,24.12
2018-02-05T20:01:45.238Z,22.45
2018-02-05T20:04:11.181Z,76.13
2018-02-05T20:06:37.103Z,48.80
2018-02-05T20:09:03.022Z,24.53
2018-02-05T20:11:29.044Z,21.47
2018-02-05T20:13:55.741Z,19.05
2018-02-05T20:16:21.803Z,26.77
2018-02-05T20:18:47.862Z,23.30
2018-02-05T20:21:13.874Z,21.77
2018-02-05T20:23:39.862Z,23.45
2018-02-05T20:26:06.144Z,22.77
2018-02-05T20:28:32.133Z,22.05
2018-02-05T20:30:58.112Z,28.08
2018-02-05T20:33:24.071Z,26.27
2018-02-05T20:35:51.064Z,21.30
2018-02-05T20:38:17.114Z,26.25
2018-02-05T20:40:43.238Z,24.50
2018-02-05T20:43:09.834Z,22.90
2018-02-05T20:45:35.896Z,24.15
2018-02-05T20:48:01.891Z,23.85
2018-02-05T20:50:28.599Z,25.20
2018-02-05T20:52:54.858Z,24.17
2018-02-05T20:55:21.004Z,22.50
2018-02-05T20:57:47.090Z,25.45
2018-02-05T21:00:13.044Z,27.95
2018-02-05T21:02:39.047Z,25.90
2018-02-05T21:05:05.086Z,22.92
2018-02-05T21:07:31.098Z,27.42
2018-02-05T21:09:57.091Z,27.17
2018-02-05T21:12:23.583Z,21.62
2018-02-05T21:14:49.565Z,27.98
2018-02-05T21:17:15.630Z,28.20
2018-02-05T21:19:42.610Z,28.85
2018-02-05T21:22:08.586Z,29.73
2018-02-05T21:24:34.545Z,30.43
2018-02-05T21:27:00.508Z,24.47
2018-02-05T21:29:26.761Z,25.27
2018-02-05T21:31:52.731Z,25.73
2018-02-05T21:34:19.882Z,24.73
2018-02-05T21:36:46.951Z,25.33
2018-02-05T21:39:12.905Z,26.48
2018-02-05T21:41:38.854Z,27.07
2018-02-05T21:44:04.958Z,30.80
2018-02-05T21:46:30.987Z,30.65
2018-02-05T21:48:57.069Z,26.15
2018-02-05T21:51:22.998Z,26.83
2018-02-05T21:53:48.952Z,28.87
2018-02-05T21:56:15.620Z,26.37
2018-02-05T21:58:41.573Z,23.52
2018-02-05T22:01:07.533Z,30.07
2018-02-05T22:03:33.664Z,31.73
2018-02-05T22:05:59.622Z,26.12
2018-02-05T22:08:26.526Z,23.70
2018-02-05T22:10:52.557Z,26.25
2018-02-05T22:13:18.590Z,24.92
2018-02-05T22:15:44.547Z,27.27
2018-02-05T22:18:10.556Z,27.20
2018-02-05T22:20:36.562Z,22.65
2018-02-05T22:23:02.629Z,33.45
2018-02-05T22:25:28.689Z,32.42
2018-02-05T22:27:54.682Z,26.15
2018-02-05T22:30:20.714Z,26.30
2018-02-05T22:32:46.662Z,29.63
2018-02-05T22:35:12.642Z,29.20
2018-02-05T22:37:38.586Z,27.60
2018-02-05T22:40:04.532Z,28.07
2018-02-05T22:42:30.527Z,24.50
2018-02-05T22:44:56.503Z,30.08
2018-02-05T22:49:55.148Z,36.42
2018-02-05T22:52:21.376Z,51.83
2018-02-05T22:54:47.391Z,29.55
2018-02-05T22:57:14.111Z,21.80
2018-02-05T22:59:40.068Z,23.62
2018-02-05T23:02:07.221Z,21.50
2018-02-05T23:04:33.930Z,25.48
2018-02-05T23:06:59.985Z,24.20
2018-02-05T23:09:25.950Z,31.00
2018-02-05T23:11:52.005Z,26.53
2018-02-05T23:14:17.944Z,24.30
2018-02-05T23:16:43.940Z,27.03
2018-02-05T23:19:09.946Z,21.83
2018-02-05T23:21:36.005Z,25.25
2018-02-05T23:24:02.754Z,29.42
2018-02-05T23:26:29.439Z,23.10
2018-02-05T23:28:55.393Z,23.95
2018-02-05T23:31:21.362Z,26.23
2018-02-05T23:33:47.710Z,26.67
2018-02-05T23:36:13.723Z,26.37
2018-02-05T23:38:39.694Z,23.98
2018-02-05T23:41:05.694Z,28.47
2018-02-05T23:43:31.715Z,29.50
2018-02-05T23:45:57.715Z,22.05
2018-02-05T23:48:23.765Z,24.45
2018-02-05T23:50:49.638Z,28.10
2018-02-05T23:53:15.662Z,24.20
2018-02-05T23:55:41.689Z,24.00
2018-02-05T23:58:07.655Z,23.77
